Time;durP1;ratioP1;P1;durP2;ratioP2;P2;SDS_P1;SDS_P2;PMS_P1;PMS_P2;Temp;Humidity;BMP_temperature;BMP_pressure;BME280_temperature;BME280_humidity;BME280_pressure;Samples;Min_cycle;Max_cycle;Signal;HPM_P1;HPM_P2
2023/06/30 00:01:55;;;;;;;8.50;7.70;;;;;;;20.82;100.00;99777.31;5089626;28;20176;-74
2023/06/30 00:04:22;;;;;;;8.73;8.03;;;;;;;20.83;100.00;99774.63;5087432;28;20204;-76
2023/06/30 00:06:49;;;;;;;8.17;7.37;;;;;;;20.83;100.00;99768.50;5095565;28;20552;-75
2023/06/30 00:09:24;;;;;;;7.60;7.00;;;;;;;20.85;100.00;99764.00;5085272;28;20177;-76
2023/06/30 00:11:51;;;;;;;8.80;8.10;;;;;;;20.84;100.00;99765.78;5087460;28;20192;-75
2023/06/30 00:14:17;;;;;;;9.03;8.33;;;;;;;20.83;100.00;99764.09;5094775;28;20247;-76
2023/06/30 00:16:43;;;;;;;8.57;7.87;;;;;;;20.82;100.00;99758.91;5081650;28;20212;-75
2023/06/30 00:19:09;;;;;;;9.80;8.57;;;;;;;20.81;100.00;99762.47;5103307;28;20177;-76
2023/06/30 00:21:34;;;;;;;11.40;8.40;;;;;;;20.81;100.00;99759.84;5113662;27;20190;-77
2023/06/30 00:24:04;;;;;;;9.40;8.40;;;;;;;20.78;100.00;99760.06;5091161;28;20207;-76
2023/06/30 00:26:30;;;;;;;10.87;8.03;;;;;;;20.75;100.00;99755.81;5087711;28;20178;-75
2023/06/30 00:29:01;;;;;;;11.50;8.90;;;;;;;20.69;100.00;99754.38;5085298;28;20599;-76
2023/06/30 00:31:27;;;;;;;15.80;9.47;;;;;;;20.64;100.00;99753.81;5088155;28;20212;-75
2023/06/30 00:33:52;;;;;;;20.50;10.17;;;;;;;20.57;100.00;99752.47;5083455;28;20410;-75
2023/06/30 00:36:17;;;;;;;37.40;10.70;;;;;;;20.51;100.00;99755.47;5084680;28;20222;-76
2023/06/30 00:38:44;;;;;;;29.90;11.57;;;;;;;20.46;100.00;99750.47;5087400;28;20191;-75
2023/06/30 00:41:10;;;;;;;24.27;10.83;;;;;;;20.42;100.00;99751.59;5094162;28;20282;-75
2023/06/30 00:43:35;;;;;;;21.77;10.27;;;;;;;20.40;100.00;99749.06;5084913;28;20604;-75
2023/06/30 00:46:01;;;;;;;25.33;10.10;;;;;;;20.40;100.00;99756.94;5082440;28;20247;-75
2023/06/30 00:48:27;;;;;;;21.70;9.50;;;;;;;20.39;100.00;99749.16;5091800;28;20190;-76
2023/06/30 00:50:52;;;;;;;18.87;10.07;;;;;;;20.39;100.00;99752.63;5084225;28;20217;-76
2023/06/30 00:53:19;;;;;;;22.63;9.60;;;;;;;20.41;100.00;99747.28;5094885;28;20212;-76
2023/06/30 00:55:44;;;;;;;17.87;10.00;;;;;;;20.43;100.00;99755.06;5090372;28;20203;-75
2023/06/30 00:58:10;;;;;;;15.60;9.20;;;;;;;20.43;100.00;99749.81;5087500;28;20596;-76
2023/06/30 01:00:35;;;;;;;21.43;9.00;;;;;;;20.44;100.00;99748.88;5079444;28;20226;-76
2023/06/30 01:03:07;;;;;;;14.83;9.10;;;;;;;20.44;100.00;99754.97;5089742;28;20218;-75
2023/06/30 01:05:59;;;;;;;15.70;9.40;;;;;;;20.44;100.00;99756.78;5075160;28;20208;-75
2023/06/30 01:08:34;;;;;;;10.87;8.27;;;;;;;20.43;100.00;99752.44;5082211;28;20192;-76
2023/06/30 01:11:01;;;;;;;9.77;8.33;;;;;;;20.40;100.00;99748.22;5093258;28;20216;-75
2023/06/30 01:13:28;;;;;;;11.97;8.17;;;;;;;20.39;100.00;99750.00;5089313;28;20747;-76
2023/06/30 01:15:56;;;;;;;10.10;8.10;;;;;;;20.41;100.00;99739.41;5086790;28;20268;-76
2023/06/30 01:18:22;;;;;;;8.37;7.57;;;;;;;20.42;100.00;99733.19;5081449;28;20272;-76
2023/06/30 01:20:49;;;;;;;9.00;8.13;;;;;;;20.44;100.00;99725.22;5080660;28;20233;-75
2023/06/30 01:23:32;;;;;;;10.83;8.00;;;;;;;20.46;100.00;99726.81;5082111;28;20191;-76
2023/06/30 01:25:59;;;;;;;8.37;7.43;;;;;;;20.49;100.00;99728.44;5083378;28;20205;-75
2023/06/30 01:28:27;;;;;;;9.37;8.10;;;;;;;20.47;100.00;99725.88;5082642;28;20182;-76
2023/06/30 01:30:54;;;;;;;8.90;8.00;;;;;;;20.48;100.00;99729.38;5084595;28;20185;-75
2023/06/30 01:33:20;;;;;;;9.73;8.13;;;;;;;20.45;100.00;99722.50;5081758;28;20208;-75
2023/06/30 01:35:46;;;;;;;9.80;7.37;;;;;;;20.44;100.00;99717.34;5091752;28;20632;-76
2023/06/30 01:38:11;;;;;;;9.43;8.00;;;;;;;20.41;100.00;99713.97;5091280;28;20318;-75
2023/06/30 01:40:36;;;;;;;9.07;7.90;;;;;;;20.40;100.00;99714.91;5079151;28;20288;-76
2023/06/30 01:43:02;;;;;;;9.57;8.17;;;;;;;20.37;100.00;99706.34;5082236;28;20681;-75
2023/06/30 01:45:28;;;;;;;12.73;8.87;;;;;;;20.33;100.00;99707.47;5083611;28;20586;-75
2023/06/30 01:47:54;;;;;;;11.60;9.57;;;;;;;20.30;100.00;99705.00;5082306;28;20197;-75
2023/06/30 01:50:21;;;;;;;10.07;8.23;;;;;;;20.27;100.00;99706.06;5089755;28;20219;-75
2023/06/30 01:52:47;;;;;;;9.27;8.33;;;;;;;20.25;100.00;99705.28;5089738;28;20202;-75
2023/06/30 01:55:12;;;;;;;10.00;8.30;;;;;;;20.25;100.00;99711.41;5084539;28;20219;-75
2023/06/30 01:57:37;;;;;;;9.40;7.87;;;;;;;20.27;100.00;99716.56;5077397;28;20275;-75
2023/06/30 02:00:05;;;;;;;8.93;8.00;;;;;;;20.28;100.00;99707.75;5081762;28;20203;-76
2023/06/30 02:02:30;;;;;;;9.00;8.10;;;;;;;20.28;100.00;99707.75;5080847;28;20184;-75
2023/06/30 02:04:56;;;;;;;9.73;8.47;;;;;;;20.27;100.00;99715.72;5078439;28;20217;-76
2023/06/30 02:07:23;;;;;;;9.80;8.17;;;;;;;20.23;100.00;99713.28;5082076;28;20200;-75
2023/06/30 02:09:48;;;;;;;9.87;8.23;;;;;;;20.21;100.00;99724.78;5082668;28;20627;-75
2023/06/30 02:12:14;;;;;;;9.20;7.97;;;;;;;20.19;100.00;99721.44;5090352;28;20243;-76
2023/06/30 02:14:39;;;;;;;9.83;8.53;;;;;;;20.16;100.00;99718.97;5107042;27;20207;-77
2023/06/30 02:17:04;;;;;;;12.77;8.93;;;;;;;20.12;100.00;99717.44;5081510;28;20219;-75
2023/06/30 02:19:30;;;;;;;8.77;7.90;;;;;;;20.11;100.00;99716.63;5083403;28;20592;-76
2023/06/30 02:21:55;;;;;;;10.07;8.97;;;;;;;20.10;100.00;99726.25;5100080;28;20214;-76
2023/06/30 02:24:20;;;;;;;9.63;8.57;;;;;;;20.09;100.00;99716.69;5094883;28;20849;-76
2023/06/30 02:26:45;;;;;;;8.93;8.10;;;;;;;20.08;100.00;99725.50;5084053;28;20185;-75
2023/06/30 02:29:11;;;;;;;10.90;8.60;;;;;;;20.11;100.00;99721.88;5092509;28;20190;-75
2023/06/30 02:31:36;;;;;;;8.90;8.00;;;;;;;20.14;100.00;99728.72;5080410;28;20331;-75
2023/06/30 02:34:01;;;;;;;9.03;8.13;;;;;;;20.12;100.00;99715.66;5078646;28;20347;-75
2023/06/30 02:36:27;;;;;;;9.60;8.60;;;;;;;20.12;100.00;99715.66;5088151;28;20689;-75
2023/06/30 02:38:52;;;;;;;8.67;7.87;;;;;;;20.14;100.00;99719.03;5085379;28;20198;-75
2023/06/30 02:41:17;;;;;;;8.90;8.13;;;;;;;20.17;100.00;99718.03;5077099;28;20186;-75
2023/06/30 02:43:43;;;;;;;9.07;8.17;;;;;;;20.18;100.00;99715.31;5087586;28;20211;-75
2023/06/30 02:46:09;;;;;;;9.53;8.57;;;;;;;20.20;100.00;99721.34;5088439;28;20289;-75
2023/06/30 02:48:34;;;;;;;10.50;8.43;;;;;;;20.21;100.00;99720.41;5088194;28;20212;-77
2023/06/30 02:51:00;;;;;;;9.30;8.00;;;;;;;20.22;100.00;99721.22;5088781;28;20241;-76
2023/06/30 02:53:25;;;;;;;9.73;8.70;;;;;;;20.22;100.00;99716.84;5099090;28;20659;-75
2023/06/30 02:55:50;;;;;;;10.63;8.70;;;;;;;20.24;100.00;99729.88;5083572;28;20218;-75
2023/06/30 02:58:16;;;;;;;8.03;7.30;;;;;;;20.24;100.00;99728.09;5088142;28;20192;-75
2023/06/30 03:00:41;;;;;;;7.97;7.27;;;;;;;20.25;100.00;99731.56;5082032;28;20374;-74
2023/06/30 03:03:06;;;;;;;8.00;7.30;;;;;;;20.25;100.00;99729.81;5079135;28;20932;-74
2023/06/30 03:05:34;;;;;;;8.57;7.87;;;;;;;20.27;100.00;99728.88;5076304;28;20268;-75
2023/06/30 03:07:59;;;;;;;8.27;7.43;;;;;;;20.27;100.00;99728.88;5080623;28;20722;-75
2023/06/30 03:10:24;;;;;;;8.90;8.10;;;;;;;20.27;100.00;99727.06;5083033;28;20184;-75
2023/06/30 03:12:51;;;;;;;9.27;8.47;;;;;;;20.28;100.00;99726.13;5082284;28;20211;-76
2023/06/30 03:15:16;;;;;;;8.67;7.80;;;;;;;20.30;100.00;99723.41;5079007;28;20721;-75
2023/06/30 03:17:42;;;;;;;9.97;7.77;;;;;;;20.32;100.00;99719.78;5076573;28;20189;-75
2023/06/30 03:20:12;;;;;;;8.30;7.50;;;;;;;20.36;100.00;99725.69;5078431;28;20190;-74
2023/06/30 03:22:41;;;;;;;8.70;8.00;;;;;;;20.36;100.00;99726.53;5081358;28;20877;-76
2023/06/30 03:25:08;;;;;;;7.50;6.90;;;;;;;20.38;100.00;99727.28;5080383;28;20284;-76
2023/06/30 03:27:34;;;;;;;8.33;7.53;;;;;;;20.39;100.00;99720.25;5085163;28;20294;-74
2023/06/30 03:30:00;;;;;;;8.20;7.37;;;;;;;20.40;100.00;99721.94;5083864;28;20974;-74
2023/06/30 03:32:26;;;;;;;8.47;7.10;;;;;;;20.41;100.00;99721.84;5072976;28;20197;-75
2023/06/30 03:34:52;;;;;;;7.73;7.03;;;;;;;20.41;100.00;99724.47;5074980;28;20213;-75
2023/06/30 03:37:17;;;;;;;8.17;7.37;;;;;;;20.44;100.00;99723.44;5080915;28;20486;-74
2023/06/30 03:39:42;;;;;;;8.77;7.97;;;;;;;20.45;100.00;99719.88;5091253;28;20184;-74
2023/06/30 03:42:08;;;;;;;9.10;8.20;;;;;;;20.46;100.00;99718.09;5085293;28;20683;-76
2023/06/30 03:44:33;;;;;;;10.80;9.10;;;;;;;20.49;100.00;99731.06;5080541;28;20223;-74
2023/06/30 03:46:59;;;;;;;9.33;8.53;;;;;;;20.51;100.00;99730.03;5084627;28;20201;-74
2023/06/30 03:49:24;;;;;;;8.23;7.53;;;;;;;20.52;100.00;99729.09;5095698;28;20266;-74
2023/06/30 03:51:50;;;;;;;8.83;8.00;;;;;;;20.57;100.00;99734.06;5083113;28;20291;-75
2023/06/30 03:54:15;;;;;;;8.93;7.97;;;;;;;20.60;100.00;99726.00;5080217;28;20833;-75
2023/06/30 03:56:40;;;;;;;8.83;8.00;;;;;;;20.63;100.00;99719.72;5084399;28;20188;-75
2023/06/30 03:59:06;;;;;;;9.60;8.60;;;;;;;20.63;100.00;99722.34;5088921;28;20248;-76
2023/06/30 04:01:33;;;;;;;9.50;8.60;;;;;;;20.66;100.00;99727.44;5084072;28;20684;-75
2023/06/30 04:03:59;;;;;;;9.63;8.67;;;;;;;20.68;100.00;99736.06;5082589;28;20265;-74
2023/06/30 04:06:25;;;;;;;9.33;8.40;;;;;;;20.70;100.00;99734.19;5091372;28;20187;-74
2023/06/30 04:08:50;;;;;;;8.87;8.07;;;;;;;20.70;100.00;99732.41;5090467;28;20632;-74
2023/06/30 04:11:15;;;;;;;8.73;7.97;;;;;;;20.71;100.00;99739.34;5082990;28;20192;-74
2023/06/30 04:13:41;;;;;;;8.37;7.67;;;;;;;20.74;100.00;99737.47;5087756;28;20185;-76
2023/06/30 04:16:06;;;;;;;8.20;7.50;;;;;;;20.76;100.00;99730.38;5085793;28;20299;-74
2023/06/30 04:18:31;;;;;;;9.37;8.47;;;;;;;20.77;100.00;99732.06;5090269;28;21011;-75
2023/06/30 04:20:57;;;;;;;8.50;7.80;;;;;;;;;;5085969;28;20270;-75
2023/06/30 04:23:22;;;;;;;8.90;8.10;;;;;;;;;;5089656;28;20185;-75
2023/06/30 04:25:48;;;;;;;8.40;7.70;;;;;;;20.84;100.00;99720.22;5085982;28;20219;-76
2023/06/30 04:28:13;;;;;;;8.63;7.83;;;;;;;20.86;100.00;99727.09;5081813;28;20665;-76
2023/06/30 04:30:39;;;;;;;8.87;8.07;;;;;;;20.90;100.00;99732.16;5085439;28;20182;-75
2023/06/30 04:33:04;;;;;;;8.40;7.60;;;;;;;20.92;100.00;99730.28;5080618;28;20348;-75
2023/06/30 04:35:29;;;;;;;8.70;7.90;;;;;;;20.93;100.00;99717.06;5086802;28;20286;-75
2023/06/30 04:37:54;;;;;;;8.17;7.47;;;;;;;20.95;100.00;99724.84;5082574;28;20212;-75
2023/06/30 04:40:20;;;;;;;8.30;7.50;;;;;;;20.95;100.00;99715.16;5081544;28;20216;-75
2023/06/30 04:42:45;;;;;;;8.33;7.70;;;;;;;20.98;100.00;99714.97;5098459;28;21071;-76
2023/06/30 04:45:10;;;;;;;8.63;7.87;;;;;;;21.00;100.00;99720.97;5103348;28;20636;-76
2023/06/30 04:47:36;;;;;;;8.63;7.73;;;;;;;21.04;100.00;99721.63;5097149;28;20205;-76
2023/06/30 04:50:01;;;;;;;8.47;7.77;;;;;;;21.08;100.00;99717.03;5082530;28;20213;-76
2023/06/30 04:52:27;;;;;;;8.40;7.70;;;;;;;21.11;100.00;99717.69;5099658;28;20719;-75
2023/06/30 04:54:52;;;;;;;8.83;8.13;;;;;;;21.13;100.00;99718.44;5080454;27;20193;-76
2023/06/30 04:57:18;;;;;;;8.20;7.40;;;;;;;21.14;100.00;99714.88;5089039;28;20236;-75
2023/06/30 04:59:43;;;;;;;7.93;7.23;;;;;;;21.16;100.00;99718.25;5082804;28;20188;-76
2023/06/30 05:02:08;;;;;;;8.40;7.70;;;;;;;21.17;100.00;99714.69;5102406;28;20172;-76
2023/06/30 05:04:34;;;;;;;8.77;7.87;;;;;;;21.20;100.00;99715.41;5088863;28;20200;-76
2023/06/30 05:06:59;;;;;;;7.90;7.17;;;;;;;21.23;100.00;99717.84;5085117;28;20181;-76
2023/06/30 05:09:25;;;;;;;8.20;7.40;;;;;;;21.26;100.00;99726.41;5089354;28;20225;-76
2023/06/30 05:11:50;;;;;;;8.10;7.30;;;;;;;21.28;100.00;99724.53;5089317;28;20200;-76
2023/06/30 05:14:16;;;;;;;8.67;7.87;;;;;;;21.31;100.00;99726.13;5103683;27;20217;-76
2023/06/30 05:16:42;;;;;;;8.43;7.73;;;;;;;21.35;100.00;99730.25;5083634;28;20208;-75
2023/06/30 05:19:07;;;;;;;9.80;7.50;;;;;;;21.37;100.00;99723.09;5083092;28;20189;-76
2023/06/30 05:21:32;;;;;;;7.97;7.27;;;;;;;21.40;100.00;99722.91;5086707;28;20181;-77
2023/06/30 05:23:58;;;;;;;8.40;7.60;;;;;;;21.43;100.00;99719.22;5090864;28;20180;-76
2023/06/30 05:26:23;;;;;;;8.33;7.47;;;;;;;21.47;99.94;99718.09;5093687;28;20190;-75
2023/06/30 05:28:48;;;;;;;9.47;7.87;;;;;;;21.50;99.91;99717.91;5082223;28;20275;-76
2023/06/30 05:31:14;;;;;;;8.90;8.07;;;;;;;21.54;100.00;99719.41;5091869;28;20272;-76
2023/06/30 05:33:39;;;;;;;8.10;7.40;;;;;;;21.59;99.52;99719.13;5082039;28;20581;-76
2023/06/30 05:36:04;;;;;;;8.23;7.53;;;;;;;21.61;99.10;99726.00;5086558;28;20282;-76
2023/06/30 05:38:30;;;;;;;8.93;8.03;;;;;;;21.67;98.85;99727.38;5086958;28;20227;-76
2023/06/30 05:40:56;;;;;;;9.03;8.13;;;;;;;21.72;99.03;99727.06;5084122;28;20189;-77
2023/06/30 05:43:22;;;;;;;9.20;8.10;;;;;;;21.78;98.84;99729.31;5099206;28;20723;-76
2023/06/30 05:45:49;;;;;;;8.93;8.03;;;;;;;21.83;98.79;99732.53;5075287;28;20204;-77
2023/06/30 05:48:14;;;;;;;8.77;7.97;;;;;;;21.89;98.80;99737.38;5071808;28;20208;-77
2023/06/30 05:50:40;;;;;;;8.57;7.77;;;;;;;21.97;98.39;99736.88;5077873;28;20565;-77
2023/06/30 05:53:05;;;;;;;8.40;7.70;;;;;;;22.06;98.23;99744.19;5071632;28;20225;-78
2023/06/30 05:55:30;;;;;;;8.70;7.80;;;;;;;22.14;97.96;99748.09;5079540;28;20266;-77
2023/06/30 05:57:56;;;;;;;9.47;8.57;;;;;;;22.20;97.91;99745.88;5078810;28;20276;-76
2023/06/30 06:00:21;;;;;;;9.40;8.50;;;;;;;22.26;97.40;99749.91;5082753;28;20242;-76
2023/06/30 06:02:46;;;;;;;9.50;8.70;;;;;;;22.30;97.59;99754.03;5075835;28;20221;-77
2023/06/30 06:05:12;;;;;;;13.40;12.00;;;;;;;22.31;97.58;99762.81;5087774;28;20304;-77
2023/06/30 06:07:37;;;;;;;12.13;10.67;;;;;;;22.34;97.57;99776.63;5078397;28;20190;-77
2023/06/30 06:10:03;;;;;;;11.67;10.53;;;;;;;22.40;97.27;99778.00;5078624;28;20181;-77
2023/06/30 06:12:29;;;;;;;11.03;10.00;;;;;;;22.47;97.41;99786.38;5084405;28;20232;-77
2023/06/30 06:14:54;;;;;;;12.27;11.00;;;;;;;22.57;97.54;99792.69;5083056;28;20696;-77
2023/06/30 06:17:20;;;;;;;11.77;10.60;;;;;;;22.64;97.99;99794.00;5088442;28;20181;-77
2023/06/30 06:19:45;;;;;;;12.03;10.77;;;;;;;22.71;97.49;99804.97;5096580;28;20203;-77
2023/06/30 06:22:11;;;;;;;11.43;10.27;;;;;;;22.75;97.42;99810.88;5087649;28;20263;-76
2023/06/30 06:24:36;;;;;;;11.73;10.57;;;;;;;22.76;97.82;99817.84;5109014;28;20182;-76
2023/06/30 06:27:01;;;;;;;12.10;10.90;;;;;;;22.67;97.07;99822.81;5090891;28;20661;-76
2023/06/30 06:29:27;;;;;;;15.60;14.00;;;;;;;22.60;96.37;99825.94;5083259;28;20192;-76
2023/06/30 06:31:52;;;;;;;14.80;13.30;;;;;;;22.59;96.44;99833.00;5082856;27;20755;-75
2023/06/30 06:34:18;;;;;;;13.83;12.47;;;;;;;22.53;96.51;99844.81;5082593;28;20208;-76
2023/06/30 06:36:44;;;;;;;15.57;13.97;;;;;;;22.45;96.40;99839.22;5092747;28;20212;-76
2023/06/30 06:39:10;;;;;;;16.47;14.77;;;;;;;22.37;96.35;99839.69;5095612;28;20204;-76
2023/06/30 06:41:36;;;;;;;16.73;15.00;;;;;;;22.28;96.98;99844.72;5082005;28;20241;-76
2023/06/30 06:44:01;;;;;;;18.03;16.13;;;;;;;22.16;99.00;99848.97;5090947;28;20263;-76
2023/06/30 06:46:27;;;;;;;17.13;15.30;;;;;;;22.12;99.24;99844.84;5089114;28;20177;-76
2023/06/30 06:48:54;;;;;;;18.80;16.90;;;;;;;22.06;100.00;99844.31;5094367;28;20201;-76
2023/06/30 06:51:20;;;;;;;19.97;17.87;;;;;;;22.03;100.00;99846.28;5087724;28;20188;-75
2023/06/30 06:53:45;;;;;;;19.73;17.77;;;;;;;21.99;100.00;99844.81;5083829;28;20936;-76
2023/06/30 06:56:11;;;;;;;18.97;16.70;;;;;;;21.98;100.00;99840.47;5095482;28;20196;-76
2023/06/30 06:58:37;;;;;;;19.13;17.13;;;;;;;21.95;100.00;99844.13;5083611;28;20189;-76
2023/06/30 07:01:03;;;;;;;18.80;16.60;;;;;;;22.00;100.00;99843.88;5078344;28;20276;-76
2023/06/30 07:03:28;;;;;;;19.77;17.43;;;;;;;22.08;100.00;99849.47;5079875;28;20316;-76
2023/06/30 07:05:55;;;;;;;18.90;17.00;;;;;;;22.19;100.00;99852.25;5095221;28;20567;-75
2023/06/30 07:08:21;;;;;;;20.00;17.90;;;;;;;22.31;100.00;99849.78;5094317;28;20192;-77
2023/06/30 07:10:47;;;;;;;21.57;19.37;;;;;;;22.31;100.00;99841.88;5093080;28;20200;-76
2023/06/30 07:13:16;;;;;;;21.87;19.53;;;;;;;22.36;100.00;99855.59;5092784;28;20216;-78
2023/06/30 07:15:42;;;;;;;21.43;19.27;;;;;;;22.40;100.00;99859.72;5086057;28;20217;-75
2023/06/30 07:18:07;;;;;;;22.40;19.87;;;;;;;22.45;100.00;99862.94;5083489;28;20193;-76
2023/06/30 07:20:33;;;;;;;21.77;19.53;;;;;;;22.48;99.88;99867.97;5086633;28;20602;-77
2023/06/30 07:22:58;;;;;;;21.93;19.57;;;;;;;22.44;99.75;99863.88;5090367;28;20664;-76
2023/06/30 07:25:25;;;;;;;21.53;19.23;;;;;;;22.40;100.00;99867.63;5084048;28;20640;-77
2023/06/30 07:27:53;;;;;;;20.93;18.80;;;;;;;22.37;100.00;99867.81;5082294;28;20609;-75
2023/06/30 07:30:20;;;;;;;20.17;18.10;;;;;;;22.37;100.00;99867.81;5096418;28;20196;-77
2023/06/30 07:32:46;;;;;;;22.37;20.00;;;;;;;22.26;100.00;99876.41;5088092;28;20208;-76
2023/06/30 07:35:12;;;;;;;22.67;20.47;;;;;;;22.08;100.00;99870.56;5080213;28;20587;-75
2023/06/30 07:37:38;;;;;;;22.80;20.50;;;;;;;22.00;100.00;99876.31;5091620;28;20687;-75
2023/06/30 07:40:03;;;;;;;23.17;20.77;;;;;;;21.93;100.00;99867.13;5090427;28;20203;-76
2023/06/30 07:42:29;;;;;;;24.03;21.43;;;;;;;21.95;100.00;99872.28;5087602;28;20619;-75
2023/06/30 07:44:54;;;;;;;23.87;21.47;;;;;;;21.89;100.00;99874.34;5094012;28;20212;-76
2023/06/30 07:47:19;;;;;;;22.37;19.93;;;;;;;21.93;100.00;99870.59;5101250;28;20275;-77
2023/06/30 07:49:45;;;;;;;21.73;19.67;;;;;;;21.96;100.00;99866.91;5098977;28;20185;-77
2023/06/30 07:52:10;;;;;;;24.00;21.40;;;;;;;21.90;100.00;99873.41;5100201;28;20196;-75
2023/06/30 07:54:36;;;;;;;23.13;20.73;;;;;;;21.77;100.00;99875.13;5107095;28;20205;-75
2023/06/30 07:57:01;;;;;;;23.53;20.70;;;;;;;21.77;100.00;99873.34;5090970;28;20219;-75
2023/06/30 07:59:27;;;;;;;23.97;21.40;;;;;;;21.71;100.00;99870.22;5089631;28;20231;-76
2023/06/30 08:01:52;;;;;;;24.03;20.90;;;;;;;21.63;100.00;99881.22;5102538;28;20177;-77
2023/06/30 08:04:18;;;;;;;23.03;20.63;;;;;;;21.68;100.00;99881.81;5094034;28;20557;-76
2023/06/30 08:06:44;;;;;;;22.27;19.97;;;;;;;21.67;100.00;99884.53;5095990;28;20185;-76
2023/06/30 08:09:10;;;;;;;21.50;19.40;;;;;;;21.68;100.00;99873.91;5097327;28;20264;-77
2023/06/30 08:11:36;;;;;;;21.30;19.10;;;;;;;21.74;100.00;99883.22;5089906;28;21032;-77
2023/06/30 08:14:02;;;;;;;23.50;21.13;;;;;;;21.74;100.00;99880.56;5104562;28;20703;-75
2023/06/30 08:16:27;;;;;;;23.77;20.43;;;;;;;21.68;100.00;99889.69;5093780;28;20197;-76
2023/06/30 08:18:53;;;;;;;25.33;20.50;;;;;;;21.61;100.00;99894.50;5081886;28;20189;-75
2023/06/30 08:21:19;;;;;;;21.37;19.17;;;;;;;21.60;100.00;99890.19;5090896;28;20251;-76
2023/06/30 08:23:44;;;;;;;21.37;19.40;;;;;;;21.59;100.00;99898.16;5095264;28;20253;-78
2023/06/30 08:26:10;;;;;;;23.00;20.67;;;;;;;21.54;100.00;99893.19;5110712;28;20629;-75
2023/06/30 08:28:35;;;;;;;22.33;20.23;;;;;;;21.54;100.00;99900.22;5081920;28;20215;-76
2023/06/30 08:31:00;;;;;;;23.87;21.43;;;;;;;21.48;100.00;99896.16;5096888;28;20319;-76
2023/06/30 08:33:27;;;;;;;21.83;19.63;;;;;;;21.41;100.00;99892.19;5096986;28;20204;-77
2023/06/30 08:35:52;;;;;;;23.40;21.13;;;;;;;21.43;100.00;99892.97;5093590;28;20642;-75
2023/06/30 08:38:18;;;;;;;22.00;19.77;;;;;;;21.48;100.00;99893.53;5093879;28;20185;-77
2023/06/30 08:40:43;;;;;;;22.33;19.77;;;;;;;21.57;100.00;99895.59;5079819;28;20643;-76
2023/06/30 08:43:11;;;;;;;21.97;19.73;;;;;;;21.68;100.00;99891.50;5088612;28;20208;-76
2023/06/30 08:45:43;;;;;;;22.80;20.43;;;;;;;21.81;100.00;99886.31;5091521;28;20275;-76
2023/06/30 08:48:09;;;;;;;22.07;19.80;;;;;;;21.90;100.00;99886.56;5092705;28;20281;-76
2023/06/30 08:50:35;;;;;;;20.67;18.67;;;;;;;22.11;100.00;99883.53;5096770;28;20196;-75
2023/06/30 08:53:02;;;;;;;22.23;20.03;;;;;;;22.28;100.00;99881.59;5091497;28;20205;-76
2023/06/30 08:55:27;;;;;;;21.23;19.13;;;;;;;22.34;100.00;99881.19;5086806;28;20288;-75
2023/06/30 08:57:57;;;;;;;21.40;19.40;;;;;;;22.38;100.00;99885.31;5087173;28;20295;-75
2023/06/30 09:00:23;;;;;;;19.67;17.73;;;;;;;22.36;100.00;99881.94;5090184;28;20228;-76
2023/06/30 09:02:50;;;;;;;20.87;18.83;;;;;;;22.29;100.00;99884.13;5090071;28;20181;-75
2023/06/30 09:05:15;;;;;;;20.00;18.13;;;;;;;22.19;100.00;99881.25;5078096;28;20216;-76
2023/06/30 09:07:55;;;;;;;20.47;18.30;;;;;;;22.11;100.00;99885.31;5081286;28;20666;-75
2023/06/30 09:10:27;;;;;;;21.53;19.20;;;;;;;21.99;100.00;99885.16;5096173;28;20272;-75
2023/06/30 09:12:57;;;;;;;20.27;18.27;;;;;;;21.91;100.00;99874.25;5077050;28;20197;-76
2023/06/30 09:15:23;;;;;;;20.13;18.10;;;;;;;21.86;100.00;99871.91;5083182;28;20236;-75
2023/06/30 09:17:49;;;;;;;20.37;18.47;;;;;;;21.87;100.00;99875.41;5082674;28;20571;-76
2023/06/30 09:20:14;;;;;;;20.50;18.50;;;;;;;21.88;100.00;99875.28;5080894;28;20200;-76
2023/06/30 09:22:40;;;;;;;19.03;17.17;;;;;;;21.88;100.00;99877.91;5087240;28;20189;-75
2023/06/30 09:25:07;;;;;;;19.43;17.63;;;;;;;21.89;100.00;99866.44;5085430;28;20221;-74
2023/06/30 09:27:35;;;;;;;19.60;17.67;;;;;;;21.90;100.00;99869.94;5101180;28;20179;-75
2023/06/30 09:30:01;;;;;;;20.07;18.07;;;;;;;21.90;100.00;99873.41;5092927;28;20251;-75
2023/06/30 09:32:31;;;;;;;19.60;17.70;;;;;;;21.92;100.00;99874.16;5093983;28;20208;-76
2023/06/30 09:34:56;;;;;;;20.60;18.60;;;;;;;21.91;100.00;99864.56;5107035;28;20219;-75
2023/06/30 09:37:22;;;;;;;19.87;17.97;;;;;;;21.87;100.00;99870.97;5098632;28;20185;-75
2023/06/30 09:39:51;;;;;;;19.93;18.03;;;;;;;21.89;100.00;99869.06;5097035;28;20187;-77
2023/06/30 09:42:17;;;;;;;19.37;17.47;;;;;;;21.92;100.00;99871.53;5100634;28;20209;-78
2023/06/30 09:44:42;;;;;;;18.90;17.17;;;;;;;21.92;100.00;99874.16;5087939;28;20231;-76
2023/06/30 09:47:07;;;;;;;21.30;19.13;;;;;;;21.96;100.00;99873.97;5101562;28;20208;-76
2023/06/30 09:49:33;;;;;;;21.43;19.40;;;;;;;21.99;100.00;99874.63;5107460;28;20183;-76
2023/06/30 09:52:09;;;;;;;27.87;20.53;;;;;;;21.99;100.00;99874.63;5097273;28;20201;-77
2023/06/30 09:54:36;;;;;;;23.17;20.87;;;;;;;21.98;100.00;99867.66;5079786;28;20216;-76
2023/06/30 09:57:05;;;;;;;20.30;18.30;;;;;;;22.02;100.00;99868.28;5094797;28;20189;-77
2023/06/30 09:59:31;;;;;;;20.10;18.30;;;;;;;22.12;100.00;99873.81;5086746;28;20242;-76
2023/06/30 10:01:57;;;;;;;22.37;20.27;;;;;;;22.20;100.00;99871.56;5086794;28;20181;-77
2023/06/30 10:04:25;;;;;;;22.10;19.93;;;;;;;22.23;100.00;99866.94;5095937;28;20698;-77
2023/06/30 10:06:52;;;;;;;22.03;19.07;;;;;;;22.30;100.00;99874.44;5098021;28;20571;-77
2023/06/30 10:09:20;;;;;;;19.70;17.80;;;;;;;22.41;100.00;99879.00;5106404;28;20188;-76
2023/06/30 10:11:52;;;;;;;20.00;18.10;;;;;;;22.61;100.00;99875.94;5087167;28;20575;-77
2023/06/30 10:14:21;;;;;;;19.73;17.83;;;;;;;22.78;100.00;99868.72;5087757;28;20220;-75
2023/06/30 10:16:47;;;;;;;21.27;19.17;;;;;;;22.90;100.00;99874.97;5095582;28;20185;-77
2023/06/30 10:19:14;;;;;;;22.63;20.40;;;;;;;23.17;100.00;99869.56;5084857;28;20242;-77
2023/06/30 10:21:40;;;;;;;19.10;17.23;;;;;;;23.47;100.00;99875.53;5096194;28;20188;-78
2023/06/30 10:24:07;;;;;;;20.40;18.40;;;;;;;23.72;100.00;99872.00;5093935;28;20213;-78
2023/06/30 10:26:35;;;;;;;19.33;17.40;;;;;;;23.85;100.00;99870.19;5105244;28;20227;-77
2023/06/30 10:29:01;;;;;;;21.57;19.47;;;;;;;23.81;100.00;99867.88;5109513;28;20196;-77
2023/06/30 10:31:27;;;;;;;25.33;21.00;;;;;;;23.84;99.89;99870.28;5089313;28;20180;-77
2023/06/30 10:33:52;;;;;;;21.63;19.50;;;;;;;23.84;100.00;99863.22;5088361;28;20177;-77
2023/06/30 10:36:19;;;;;;;22.00;19.70;;;;;;;23.98;99.31;99864.88;5087120;28;20192;-78
2023/06/30 10:38:46;;;;;;;20.83;18.83;;;;;;;24.08;98.27;99872.16;5091360;28;20250;-76
2023/06/30 10:41:30;;;;;;;20.50;18.40;;;;;;;24.32;97.90;99867.72;5100936;28;20855;-74
2023/06/30 10:44:01;;;;;;;21.57;19.27;;;;;;;24.51;96.08;99864.53;5079900;28;20188;-75
2023/06/30 10:46:50;;;;;;;20.67;18.57;;;;;;;24.83;95.36;99863.13;5088370;28;20219;-76
2023/06/30 10:49:17;;;;;;;19.43;17.53;;;;;;;25.22;94.16;99865.50;5098516;28;20177;-76
2023/06/30 10:51:49;;;;;;;19.23;17.33;;;;;;;25.34;93.18;99864.53;5092019;28;20222;-76
2023/06/30 10:54:21;;;;;;;17.60;15.80;;;;;;;25.55;93.01;99851.44;5080168;28;20771;-76
2023/06/30 10:56:49;;;;;;;25.20;19.43;;;;;;;25.59;92.18;99853.84;5083996;28;20188;-75
2023/06/30 10:59:23;;;;;;;21.60;18.93;;;;;;;25.60;92.12;99842.28;5091459;28;20656;-76
2023/06/30 11:02:10;;;;;;;18.67;16.87;;;;;;;25.74;91.30;99836.72;5081187;28;20205;-74
2023/06/30 11:04:37;;;;;;;20.27;17.53;;;;;;;25.75;91.47;99833.13;5088068;28;20204;-77
2023/06/30 11:07:03;;;;;;;20.13;18.10;;;;;;;25.74;91.49;99822.63;5091573;28;20217;-75
2023/06/30 11:09:48;;;;;;;23.40;19.97;;;;;;;25.78;91.57;99824.06;5066511;28;20192;-75
2023/06/30 11:12:18;;;;;;;19.40;17.60;;;;;;;26.14;90.82;99838.81;5080037;28;20200;-75
2023/06/30 11:15:01;;;;;;;19.63;17.63;;;;;;;26.22;90.04;99835.53;5090977;28;20212;-76
2023/06/30 11:17:52;;;;;;;20.37;18.37;;;;;;;26.30;89.84;99851.69;5096860;28;20322;-76